Overseas Long Beach — WAAT — position and weather

sailwx.info

Track history (hours):
 
Tides and Currents Weather Stations Pressure Air Temp Water Temp Dewpoint Dewpoint Depression Visibility Wind Speed Wind Dir Waves Ship Positions

Overseas Long Beach

Owner: ASC Leasing II, Inc., Philadelphia, PA. More information available from US FCC via Universal Licensing System and Coast Guard Vessel Documentation Center.

Last reported at 2015-Mar-01 12:33 UTC. Time now 2015-Mar-03 16:38 UTC.
Position N 40°35' W 074°13'.

Length 181 m; draft 7.7 m.

Type: Tanker. MMSI: 367703000.

Date/timePositionNaut miles runAvg speedWind from/ knotsBaromVisibWave heightAir tempDewpointWater temp
2015-Mar-01 12:33N 40°35' W 074°13'6 4.8
2015-Mar-01 11:22N 40°30' W 074°15'8 9.5
2015-Mar-01 10:33N 40°29' W 074°05'8 8.1
2015-Mar-01 09:33N 40°25' W 073°56'0 0.0
2015-Mar-01 08:28N 40°25' W 073°56'0 0.0
2015-Mar-01 07:31N 40°25' W 073°56'0 0.0
2015-Mar-01 06:31N 40°25' W 073°56'0 0.1
2015-Mar-01 05:19N 40°25' W 073°56'0 0.1
2015-Mar-01 04:28N 40°25' W 073°55'0 0.0
2015-Mar-01 03:31N 40°25' W 073°55'0 0.0
2015-Mar-01 02:31N 40°25' W 073°55'0 0.0
2015-Mar-01 01:31N 40°25' W 073°55'0 0.1
2015-Mar-01 00:25N 40°25' W 073°55'0 0.2
2015-Feb-28 23:31N 40°25' W 073°55'7 6.5
2015-Feb-28 22:30N 40°22' W 073°48'8 8.1
2015-Feb-28 21:27N 40°13' W 073°45'4313.8
2015-Feb-28 18:18N 39°30' W 073°41'2614.3
2015-Feb-28 16:31N 39°04' W 073°40'31712.9
2015-Feb-27 16:00N 34°06' W 075°54'   350 / 201025.010.8 1.0 7.2 4.9
2015-Feb-24 00:00N 33°12' W 077°00'41212.7 020 / 351020.0 5.4 2.010.0 7.9
2015-Feb-22 15:33N 39°36' W 073°52'1313.6
2015-Feb-22 14:33N 39°49' W 073°51'42 9.6
2015-Feb-22 10:13N 40°31' W 073°59'811.9
2015-Feb-22 09:33N 40°38' W 074°03'0 0.3
2015-Feb-22 08:32N 40°38' W 074°04'0 0.0
2015-Feb-22 07:32N 40°38' W 074°04'0 0.0
2015-Feb-22 06:32N 40°38' W 074°04'0 0.0
2015-Feb-22 05:32N 40°38' W 074°04'0 0.2
2015-Feb-22 04:32N 40°38' W 074°04'0 0.0
2015-Feb-22 03:32N 40°38' W 074°04'0 0.0
2015-Feb-22 02:32N 40°38' W 074°04'0 0.0
2015-Feb-22 01:32N 40°38' W 074°04'0 0.0
2015-Feb-22 00:32N 40°38' W 074°04'0 0.1
2015-Feb-21 23:26N 40°38' W 074°04'0 0.2
2015-Feb-21 22:32N 40°38' W 074°04'0 0.1
2015-Feb-21 21:32N 40°38' W 074°04'0 0.0
2015-Feb-21 20:32N 40°38' W 074°04'0 0.1
2015-Feb-21 19:32N 40°38' W 074°04'0 0.0
2015-Feb-21 18:32N 40°38' W 074°04'0 0.0
2015-Feb-21 17:32N 40°38' W 074°04'0 0.1
2015-Feb-21 16:32N 40°38' W 074°04'3 3.2
2015-Feb-21 15:33N 40°39' W 074°08'5 4.7
2015-Feb-21 14:33N 40°36' W 074°12'0 0.0
2015-Feb-19 19:32N 40°35' W 074°12'5 4.9
2015-Feb-19 18:28N 40°31' W 074°15'7 7.9
2015-Feb-19 17:33N 40°29' W 074°06'8 8.5
2015-Feb-19 16:33N 40°27' W 073°56'7 5.9
2015-Feb-19 15:23N 40°21' W 073°50'  
Track history (hours):
 
Tides and Currents Weather Stations Pressure Air Temp Water Temp Dewpoint Dewpoint Depression Visibility Wind Speed Wind Dir Waves Ship Positions

Overseas Long Beach

Owner: ASC Leasing II, Inc., Philadelphia, PA. More information available from US FCC via Universal Licensing System and Coast Guard Vessel Documentation Center.

Last reported at 2015-Mar-01 12:33 UTC. Time now 2015-Mar-03 16:38 UTC.
Position N 40°35' W 074°13'.

Length 181 m; draft 7.7 m.

Type: Tanker. MMSI: 367703000.

Date/timePositionNaut miles runAvg speedWind from/ knotsBaromVisibWave heightAir tempDewpointWater temp
2015-Mar-01 12:33N 40°35' W 074°13'6 4.8
2015-Mar-01 11:22N 40°30' W 074°15'8 9.5
2015-Mar-01 10:33N 40°29' W 074°05'8 8.1
2015-Mar-01 09:33N 40°25' W 073°56'0 0.0
2015-Mar-01 08:28N 40°25' W 073°56'0 0.0
2015-Mar-01 07:31N 40°25' W 073°56'0 0.0
2015-Mar-01 06:31N 40°25' W 073°56'0 0.1
2015-Mar-01 05:19N 40°25' W 073°56'0 0.1
2015-Mar-01 04:28N 40°25' W 073°55'0 0.0
2015-Mar-01 03:31N 40°25' W 073°55'0 0.0
2015-Mar-01 02:31N 40°25' W 073°55'0 0.0
2015-Mar-01 01:31N 40°25' W 073°55'0 0.1
2015-Mar-01 00:25N 40°25' W 073°55'0 0.2
2015-Feb-28 23:31N 40°25' W 073°55'7 6.5
2015-Feb-28 22:30N 40°22' W 073°48'8 8.1
2015-Feb-28 21:27N 40°13' W 073°45'4313.8
2015-Feb-28 18:18N 39°30' W 073°41'2614.3
2015-Feb-28 16:31N 39°04' W 073°40'31712.9
2015-Feb-27 16:00N 34°06' W 075°54'   350 / 201025.010.8 1.0 7.2 4.9
2015-Feb-24 00:00N 33°12' W 077°00'41212.7 020 / 351020.0 5.4 2.010.0 7.9
2015-Feb-22 15:33N 39°36' W 073°52'1313.6
2015-Feb-22 14:33N 39°49' W 073°51'42 9.6
2015-Feb-22 10:13N 40°31' W 073°59'811.9
2015-Feb-22 09:33N 40°38' W 074°03'0 0.3
2015-Feb-22 08:32N 40°38' W 074°04'0 0.0
2015-Feb-22 07:32N 40°38' W 074°04'0 0.0
2015-Feb-22 06:32N 40°38' W 074°04'0 0.0
2015-Feb-22 05:32N 40°38' W 074°04'0 0.2
2015-Feb-22 04:32N 40°38' W 074°04'0 0.0
2015-Feb-22 03:32N 40°38' W 074°04'0 0.0
2015-Feb-22 02:32N 40°38' W 074°04'0 0.0
2015-Feb-22 01:32N 40°38' W 074°04'0 0.0
2015-Feb-22 00:32N 40°38' W 074°04'0 0.1
2015-Feb-21 23:26N 40°38' W 074°04'0 0.2
2015-Feb-21 22:32N 40°38' W 074°04'0 0.1
2015-Feb-21 21:32N 40°38' W 074°04'0 0.0
2015-Feb-21 20:32N 40°38' W 074°04'0 0.1
2015-Feb-21 19:32N 40°38' W 074°04'0 0.0
2015-Feb-21 18:32N 40°38' W 074°04'0 0.0
2015-Feb-21 17:32N 40°38' W 074°04'0 0.1
2015-Feb-21 16:32N 40°38' W 074°04'3 3.2
2015-Feb-21 15:33N 40°39' W 074°08'5 4.7
2015-Feb-21 14:33N 40°36' W 074°12'0 0.0
2015-Feb-19 19:32N 40°35' W 074°12'5 4.9
2015-Feb-19 18:28N 40°31' W 074°15'7 7.9
2015-Feb-19 17:33N 40°29' W 074°06'8 8.5
2015-Feb-19 16:33N 40°27' W 073°56'7 5.9
2015-Feb-19 15:23N 40°21' W 073°50'  

Dump ship's entire track history